createdAt,value
2018-02-10T00:00:51.578Z,94.98
2018-02-10T00:01:51.558Z,94.84
2018-02-10T00:02:51.555Z,94.93
2018-02-10T00:03:51.514Z,95.07
2018-02-10T00:04:51.504Z,95.07
2018-02-10T00:05:51.478Z,95.55
2018-02-10T00:06:51.452Z,95.55
2018-02-10T00:07:51.455Z,95.74
2018-02-10T00:08:51.414Z,95.74
2018-02-10T00:09:51.398Z,95.74
2018-02-10T00:10:51.393Z,95.74
2018-02-10T00:11:51.355Z,95.78
2018-02-10T00:12:51.337Z,95.50
2018-02-10T00:13:51.334Z,95.31
2018-02-10T00:14:51.295Z,95.59
2018-02-10T00:15:51.278Z,95.55
2018-02-10T00:16:51.256Z,95.55
2018-02-10T00:17:51.234Z,95.50
2018-02-10T00:18:51.251Z,95.97
2018-02-10T00:19:51.211Z,95.59
2018-02-10T00:20:51.172Z,95.93
2018-02-10T00:21:51.154Z,95.69
2018-02-10T00:22:51.137Z,95.97
2018-02-10T00:23:51.115Z,96.21
2018-02-10T00:24:51.094Z,96.45
2018-02-10T00:25:51.090Z,96.69
2018-02-10T00:26:51.054Z,96.31
2018-02-10T00:27:51.032Z,96.31
2018-02-10T00:28:51.011Z,96.97
2018-02-10T00:29:50.996Z,97.06
2018-02-10T00:30:50.992Z,97.06
2018-02-10T00:31:50.958Z,97.25
2018-02-10T00:32:50.937Z,97.06
2018-02-10T00:33:50.920Z,97.16
2018-02-10T00:34:50.894Z,96.78
2018-02-10T00:35:50.891Z,96.97
2018-02-10T00:36:50.869Z,97.25
2018-02-10T00:37:50.834Z,97.16
2018-02-10T00:38:50.813Z,97.34
2018-02-10T00:39:50.795Z,97.39
2018-02-10T00:40:50.776Z,96.83
2018-02-10T00:41:50.774Z,97.39
2018-02-10T00:42:50.735Z,96.83
2018-02-10T00:43:50.708Z,97.02
2018-02-10T00:44:50.690Z,97.39
2018-02-10T00:45:50.673Z,97.34
2018-02-10T00:46:50.656Z,97.44
2018-02-10T00:47:50.652Z,97.53
2018-02-10T00:48:50.613Z,97.63
2018-02-10T00:49:50.593Z,97.63
2018-02-10T00:50:50.569Z,97.63
2018-02-10T00:51:50.553Z,97.63
2018-02-10T00:52:50.533Z,97.63
2018-02-10T00:53:50.527Z,97.68
2018-02-10T00:54:50.491Z,97.77
2018-02-10T00:55:50.475Z,98.20
2018-02-10T00:56:50.453Z,97.44
2018-02-10T00:57:50.431Z,97.72
2018-02-10T00:58:50.424Z,97.53
2018-02-10T00:59:50.392Z,97.82
2018-02-10T01:00:50.374Z,98.39
2018-02-10T01:01:50.352Z,98.20
2018-02-10T01:02:50.346Z,98.58
2018-02-10T01:03:50.313Z,98.77
2018-02-10T01:04:50.293Z,98.77
2018-02-10T01:05:50.270Z,98.96
2018-02-10T01:06:50.253Z,98.20
2018-02-10T01:07:50.244Z,98.53
2018-02-10T01:08:50.212Z,98.20
2018-02-10T01:09:50.189Z,98.01
2018-02-10T01:10:50.184Z,97.91
2018-02-10T01:11:50.149Z,98.48
2018-02-10T01:12:50.130Z,98.29
2018-02-10T01:13:50.125Z,98.58
2018-02-10T01:14:50.087Z,98.34
2018-02-10T01:15:50.065Z,98.48
2018-02-10T01:16:50.046Z,98.58
2018-02-10T01:17:50.027Z,99.15
2018-02-10T01:18:50.016Z,99.24
2018-02-10T01:19:50.007Z,99.15
2018-02-10T01:20:49.970Z,98.82
2018-02-10T01:21:49.947Z,98.82
2018-02-10T01:22:49.926Z,98.10
2018-02-10T01:23:49.906Z,98.48
2018-02-10T01:24:50.707Z,98.67
2018-02-10T01:25:49.867Z,99.33
2018-02-10T01:26:50.663Z,99.15
2018-02-10T01:27:49.827Z,99.15
2018-02-10T01:28:49.807Z,99.24
2018-02-10T01:29:49.785Z,98.86
2018-02-10T01:30:49.780Z,98.96
2018-02-10T01:31:50.666Z,99.10
2018-02-10T01:32:51.663Z,98.63
2018-02-10T01:33:50.664Z,98.48
2018-02-10T01:34:49.684Z,98.63
2018-02-10T01:35:49.665Z,98.39
2018-02-10T01:36:49.676Z,98.25
2018-02-10T01:37:49.626Z,98.20
2018-02-10T01:38:49.603Z,98.39
2018-02-10T01:39:50.193Z,98.20
2018-02-10T01:40:49.578Z,98.34
2018-02-10T01:41:49.542Z,98.29
2018-02-10T01:42:49.542Z,98.44
2018-02-10T01:43:49.502Z,98.20
2018-02-10T01:44:49.482Z,98.67
2018-02-10T01:45:49.464Z,99.01
2018-02-10T01:46:49.442Z,99.01
2018-02-10T01:47:49.438Z,98.06
2018-02-10T01:48:49.417Z,98.44
2018-02-10T01:49:49.378Z,98.15
2018-02-10T01:50:49.364Z,98.29
2018-02-10T01:51:49.350Z,98.96
2018-02-10T01:52:49.323Z,99.24
2018-02-10T01:53:49.316Z,98.86
2018-02-10T01:54:49.283Z,98.58
2018-02-10T01:55:49.264Z,99.24
2018-02-10T01:56:49.240Z,99.33
2018-02-10T01:57:49.234Z,99.43
2018-02-10T01:58:49.203Z,99.19
2018-02-10T01:59:49.184Z,99.43
2018-02-10T02:00:49.161Z,99.48
2018-02-10T02:01:49.141Z,99.10
2018-02-10T02:02:49.118Z,98.63
2018-02-10T02:03:49.115Z,98.91
2018-02-10T02:04:49.705Z,98.72
2018-02-10T02:05:49.060Z,99.19
2018-02-10T02:06:49.047Z,99.19
2018-02-10T02:07:49.021Z,99.29
2018-02-10T02:08:49.001Z,99.01
2018-02-10T02:09:48.998Z,99.29
2018-02-10T02:10:48.963Z,99.38
2018-02-10T02:11:48.941Z,98.82
2018-02-10T02:12:48.929Z,98.72
2018-02-10T02:13:48.912Z,99.19
2018-02-10T02:14:48.896Z,99.19
2018-02-10T02:15:48.861Z,98.82
2018-02-10T02:16:48.854Z,99.01
2018-02-10T02:17:48.820Z,98.91
2018-02-10T02:18:48.801Z,98.63
2018-02-10T02:19:48.779Z,98.72
2018-02-10T02:20:48.760Z,99.29
2018-02-10T02:21:48.749Z,99.29
2018-02-10T02:22:48.723Z,99.29
2018-02-10T02:23:48.706Z,99.29
2018-02-10T02:24:50.168Z,99.29
2018-02-10T02:25:48.680Z,99.38
2018-02-10T02:26:48.640Z,98.72
2018-02-10T02:27:48.620Z,99.01
2018-02-10T02:28:48.600Z,99.01
2018-02-10T02:29:48.581Z,98.91
2018-02-10T02:30:49.205Z,98.72
2018-02-10T02:31:49.188Z,98.72
2018-02-10T02:32:48.520Z,98.91
2018-02-10T02:33:48.500Z,98.82
2018-02-10T02:34:48.480Z,99.01
2018-02-10T02:35:48.456Z,99.01
2018-02-10T02:36:48.456Z,99.38
2018-02-10T02:37:48.424Z,98.72
2018-02-10T02:38:48.418Z,99.29
2018-02-10T02:39:48.378Z,99.10
2018-02-10T02:40:48.359Z,99.01
2018-02-10T02:41:48.340Z,99.10
2018-02-10T02:42:48.324Z,98.82
2018-02-10T02:43:48.296Z,99.38
2018-02-10T02:44:48.298Z,99.01
2018-02-10T02:45:48.265Z,99.01
2018-02-10T02:46:49.210Z,98.72
2018-02-10T02:47:48.220Z,98.63
2018-02-10T02:48:48.218Z,99.29
2018-02-10T02:49:48.177Z,99.29
2018-02-10T02:50:48.160Z,98.63
2018-02-10T02:51:48.140Z,98.63
2018-02-10T02:52:48.165Z,99.29
2018-02-10T02:53:48.116Z,98.72
2018-02-10T02:54:48.081Z,98.91
2018-02-10T02:55:48.060Z,99.57
2018-02-10T02:56:48.041Z,99.48
2018-02-10T02:57:48.020Z,99.38
2018-02-10T02:58:47.999Z,99.38
2018-02-10T02:59:47.995Z,99.01
2018-02-10T03:00:47.962Z,99.01
2018-02-10T03:01:47.945Z,98.91
2018-02-10T03:02:47.923Z,98.91
2018-02-10T03:03:47.899Z,99.10
2018-02-10T03:04:47.899Z,98.63
2018-02-10T03:05:49.669Z,99.01
2018-02-10T03:06:47.842Z,98.82
2018-02-10T03:07:47.856Z,99.29
2018-02-10T03:08:47.807Z,99.29
2018-02-10T03:09:47.794Z,98.82
2018-02-10T03:10:47.772Z,98.72
2018-02-10T03:11:47.740Z,99.38
2018-02-10T03:12:47.735Z,99.19
2018-02-10T03:13:47.704Z,98.82
2018-02-10T03:14:47.681Z,98.63
2018-02-10T03:15:47.678Z,99.01
2018-02-10T03:16:47.637Z,99.01
2018-02-10T03:17:47.626Z,98.72
2018-02-10T03:18:47.615Z,99.01
2018-02-10T03:19:47.582Z,98.82
2018-02-10T03:20:47.560Z,99.29
2018-02-10T03:21:47.540Z,99.38
2018-02-10T03:22:47.516Z,99.57
2018-02-10T03:23:47.500Z,99.48
2018-02-10T03:24:47.500Z,98.63
2018-02-10T03:25:47.456Z,98.91
2018-02-10T03:26:47.440Z,98.82
2018-02-10T03:27:48.238Z,98.91
2018-02-10T03:28:47.401Z,98.53
2018-02-10T03:29:47.379Z,98.25
2018-02-10T03:30:47.371Z,98.06
2018-02-10T03:31:47.335Z,98.06
2018-02-10T03:32:47.326Z,98.06
2018-02-10T03:33:47.296Z,98.25
2018-02-10T03:34:47.277Z,98.25
2018-02-10T03:35:47.259Z,98.44
2018-02-10T03:36:49.176Z,97.96
2018-02-10T03:37:47.219Z,98.25
2018-02-10T03:38:47.195Z,98.34
2018-02-10T03:39:47.175Z,98.63
2018-02-10T03:40:47.156Z,98.44
2018-02-10T03:41:47.149Z,98.53
2018-02-10T03:42:47.116Z,98.91
2018-02-10T03:43:47.101Z,99.19
2018-02-10T03:44:47.074Z,98.06
2018-02-10T03:45:47.056Z,99.01
2018-02-10T03:46:47.047Z,99.01
2018-02-10T03:47:47.036Z,98.82
2018-02-10T03:48:46.997Z,98.91
2018-02-10T03:49:48.672Z,99.10
2018-02-10T03:50:46.953Z,99.19
2018-02-10T03:51:46.932Z,99.38
2018-02-10T03:52:47.757Z,98.72
2018-02-10T03:53:46.892Z,98.82
2018-02-10T03:54:46.892Z,99.01
2018-02-10T03:55:46.853Z,99.10
2018-02-10T03:56:46.838Z,99.66
2018-02-10T03:57:46.820Z,99.19
2018-02-10T03:58:46.806Z,99.66
2018-02-10T03:59:46.768Z,99.66
2018-02-10T04:00:46.756Z,99.38
2018-02-10T04:01:46.727Z,99.19
2018-02-10T04:02:46.707Z,99.38
2018-02-10T04:03:46.694Z,99.19
2018-02-10T04:04:46.690Z,99.38
2018-02-10T04:05:46.664Z,98.91
2018-02-10T04:06:46.629Z,98.91
2018-02-10T04:07:46.613Z,99.38
2018-02-10T04:08:46.583Z,98.72
2018-02-10T04:09:46.585Z,99.29
2018-02-10T04:10:46.578Z,99.19
2018-02-10T04:11:46.529Z,99.29
2018-02-10T04:12:46.508Z,99.29
2018-02-10T04:13:46.484Z,99.38
2018-02-10T04:14:46.466Z,99.10
2018-02-10T04:15:46.450Z,98.72
2018-02-10T04:16:46.440Z,98.44
2018-02-10T04:17:46.406Z,98.25
2018-02-10T04:18:47.208Z,98.44
2018-02-10T04:19:46.364Z,98.34
2018-02-10T04:20:46.352Z,97.96
2018-02-10T04:21:46.322Z,98.34
2018-02-10T04:22:49.174Z,98.82
2018-02-10T04:23:46.284Z,98.53
2018-02-10T04:24:46.264Z,98.63
2018-02-10T04:25:46.254Z,99.29
2018-02-10T04:26:46.219Z,98.91
2018-02-10T04:27:48.175Z,98.72
2018-02-10T04:28:46.197Z,98.72
2018-02-10T04:29:46.163Z,98.91
2018-02-10T04:30:46.158Z,99.19
2018-02-10T04:31:46.120Z,98.91
2018-02-10T04:32:46.099Z,98.25
2018-02-10T04:33:46.086Z,98.77
2018-02-10T04:34:46.062Z,98.15
2018-02-10T04:35:46.061Z,98.30
2018-02-10T04:36:46.019Z,98.25
2018-02-10T04:37:45.998Z,98.44
2018-02-10T04:38:45.982Z,98.91
2018-02-10T04:39:45.960Z,98.53
2018-02-10T04:40:45.941Z,98.06
2018-02-10T04:41:45.936Z,98.30
2018-02-10T04:42:45.898Z,98.25
2018-02-10T04:43:45.882Z,98.63
2018-02-10T04:44:45.860Z,98.34
2018-02-10T04:45:45.837Z,98.63
2018-02-10T04:46:45.837Z,98.39
2018-02-10T04:47:45.799Z,98.25
2018-02-10T04:48:45.779Z,98.49
2018-02-10T04:49:45.758Z,98.34
2018-02-10T04:50:45.737Z,98.72
2018-02-10T04:51:45.731Z,99.05
2018-02-10T04:52:45.697Z,98.82
2018-02-10T04:53:45.678Z,98.82
2018-02-10T04:54:45.657Z,98.96
2018-02-10T04:55:45.647Z,98.82
2018-02-10T04:56:45.779Z,99.10
2018-02-10T04:57:45.598Z,99.29
2018-02-10T04:58:45.596Z,99.10
2018-02-10T04:59:45.563Z,98.91
2018-02-10T05:00:45.542Z,99.24
2018-02-10T05:01:45.532Z,98.86
2018-02-10T05:02:45.498Z,98.91
2018-02-10T05:03:45.474Z,98.82
2018-02-10T05:04:45.480Z,98.82
2018-02-10T05:05:46.222Z,99.10
2018-02-10T05:06:45.422Z,99.38
2018-02-10T05:07:45.400Z,99.15
2018-02-10T05:08:45.397Z,99.05
2018-02-10T05:09:45.356Z,99.05
2018-02-10T05:10:46.260Z,98.49
2018-02-10T05:11:45.342Z,98.20
2018-02-10T05:12:45.296Z,97.92
2018-02-10T05:13:45.294Z,97.54
2018-02-10T05:14:45.260Z,98.30
2018-02-10T05:15:45.240Z,97.92
2018-02-10T05:16:45.219Z,98.20
2018-02-10T05:17:45.197Z,98.20
2018-02-10T05:18:45.195Z,98.20
2018-02-10T05:19:46.177Z,98.20
2018-02-10T05:20:45.143Z,97.82
2018-02-10T05:21:45.123Z,98.01
2018-02-10T05:22:45.101Z,98.01
2018-02-10T05:23:45.752Z,98.30
2018-02-10T05:24:45.058Z,97.73
2018-02-10T05:25:45.035Z,98.01
2018-02-10T05:26:45.043Z,98.30
2018-02-10T05:27:44.997Z,98.11
2018-02-10T05:28:44.977Z,97.73
2018-02-10T05:29:44.959Z,97.54
2018-02-10T05:30:44.956Z,97.54
2018-02-10T05:31:44.923Z,97.54
2018-02-10T05:32:44.894Z,98.01
2018-02-10T05:33:44.877Z,97.92
2018-02-10T05:34:44.861Z,97.92
2018-02-10T05:35:44.840Z,98.01
2018-02-10T05:36:44.837Z,98.11
2018-02-10T05:37:44.801Z,98.11
2018-02-10T05:38:44.779Z,98.11
2018-02-10T05:39:44.754Z,97.44
2018-02-10T05:40:44.738Z,97.54
2018-02-10T05:41:44.715Z,97.73
2018-02-10T05:42:44.712Z,97.44
2018-02-10T05:43:45.180Z,97.54
2018-02-10T05:44:44.658Z,97.73
2018-02-10T05:45:44.639Z,97.73
2018-02-10T05:46:44.635Z,97.44
2018-02-10T05:47:44.591Z,97.16
2018-02-10T05:48:44.582Z,97.44
2018-02-10T05:49:44.556Z,97.16
2018-02-10T05:50:44.542Z,97.25
2018-02-10T05:51:44.520Z,97.44
2018-02-10T05:52:44.522Z,97.54
2018-02-10T05:53:45.221Z,97.44
2018-02-10T05:54:44.457Z,97.73
2018-02-10T05:55:44.432Z,97.63
2018-02-10T05:56:44.416Z,97.73
2018-02-10T05:57:44.413Z,97.73
2018-02-10T05:58:44.378Z,97.35
2018-02-10T05:59:44.375Z,97.35
2018-02-10T06:00:44.342Z,97.16
2018-02-10T06:01:44.323Z,96.78
2018-02-10T06:02:44.310Z,96.78
2018-02-10T06:03:44.279Z,96.97
2018-02-10T06:04:44.258Z,97.06
2018-02-10T06:05:44.237Z,96.97
2018-02-10T06:06:44.219Z,97.06
2018-02-10T06:07:44.216Z,97.06
2018-02-10T06:08:44.199Z,97.16
2018-02-10T06:09:44.177Z,97.16
2018-02-10T06:10:44.149Z,97.16
2018-02-10T06:11:44.121Z,97.35
2018-02-10T06:12:44.106Z,97.25
2018-02-10T06:13:44.681Z,96.88
2018-02-10T06:14:44.079Z,97.06
2018-02-10T06:15:44.039Z,96.88
2018-02-10T06:16:44.023Z,97.35
2018-02-10T06:17:44.004Z,96.88
2018-02-10T06:18:43.985Z,97.35
2018-02-10T06:19:44.760Z,97.16
2018-02-10T06:20:43.996Z,97.16
2018-02-10T06:21:43.921Z,96.78
2018-02-10T06:22:43.899Z,97.16
2018-02-10T06:23:43.882Z,97.25
2018-02-10T06:24:43.879Z,97.06
2018-02-10T06:25:43.844Z,97.16
2018-02-10T06:26:43.825Z,96.97
2018-02-10T06:27:43.808Z,97.16
2018-02-10T06:28:44.728Z,97.25
2018-02-10T06:29:43.768Z,97.16
2018-02-10T06:30:43.758Z,97.35
2018-02-10T06:31:43.724Z,97.06
2018-02-10T06:32:43.723Z,96.59
2018-02-10T06:33:43.745Z,96.50
2018-02-10T06:34:43.667Z,97.16
2018-02-10T06:35:43.670Z,96.97
2018-02-10T06:36:43.627Z,96.78
2018-02-10T06:37:43.609Z,96.31
2018-02-10T06:38:43.609Z,96.40
2018-02-10T06:39:43.566Z,96.78
2018-02-10T06:40:43.550Z,96.97
2018-02-10T06:41:43.531Z,97.16
2018-02-10T06:42:44.211Z,96.50
2018-02-10T06:43:43.507Z,96.59
2018-02-10T06:44:43.487Z,96.40
2018-02-10T06:45:44.263Z,96.31
2018-02-10T06:46:43.433Z,96.50
2018-02-10T06:47:43.420Z,96.59
2018-02-10T06:48:43.401Z,96.50
2018-02-10T06:49:43.388Z,96.50
2018-02-10T06:50:43.350Z,96.50
2018-02-10T06:51:43.325Z,96.40
2018-02-10T06:52:43.311Z,96.59
2018-02-10T06:53:43.287Z,96.40
2018-02-10T06:54:43.285Z,96.97
2018-02-10T06:55:43.252Z,97.25
2018-02-10T06:56:43.231Z,96.59
2018-02-10T06:57:43.213Z,96.69
2018-02-10T06:58:43.198Z,96.40
2018-02-10T06:59:44.184Z,96.21
2018-02-10T07:00:43.164Z,96.21
2018-02-10T07:01:43.127Z,96.59
2018-02-10T07:02:43.110Z,96.31
2018-02-10T07:03:43.687Z,96.02
2018-02-10T07:04:43.079Z,96.21
2018-02-10T07:05:43.070Z,96.21
2018-02-10T07:06:43.691Z,96.40
2018-02-10T07:07:43.015Z,96.59
2018-02-10T07:08:43.001Z,96.69
2018-02-10T07:09:43.727Z,96.02
2018-02-10T07:10:43.704Z,96.78
2018-02-10T07:11:42.964Z,96.40
2018-02-10T07:12:42.909Z,96.40
2018-02-10T07:13:44.686Z,95.55
2018-02-10T07:14:42.912Z,95.74
2018-02-10T07:15:42.939Z,95.36
2018-02-10T07:16:42.867Z,95.36
2018-02-10T07:17:42.839Z,95.64
2018-02-10T07:18:42.806Z,95.83
2018-02-10T07:19:42.782Z,95.64
2018-02-10T07:20:42.762Z,95.55
2018-02-10T07:21:42.758Z,95.83
2018-02-10T07:22:42.807Z,95.64
2018-02-10T07:23:42.701Z,95.55
2018-02-10T07:24:42.679Z,95.64
2018-02-10T07:25:42.655Z,95.36
2018-02-10T07:26:42.676Z,94.79
2018-02-10T07:27:42.630Z,94.98
2018-02-10T07:28:42.627Z,94.98
2018-02-10T07:29:43.240Z,95.36
2018-02-10T07:30:42.571Z,95.07
2018-02-10T07:31:42.548Z,95.36
2018-02-10T07:32:42.519Z,95.17
2018-02-10T07:33:42.548Z,95.17
2018-02-10T07:34:42.494Z,95.26
2018-02-10T07:35:42.464Z,95.07
2018-02-10T07:36:44.187Z,95.45
2018-02-10T07:37:42.417Z,95.64
2018-02-10T07:38:42.394Z,96.40
2018-02-10T07:39:42.378Z,96.12
2018-02-10T07:40:42.356Z,96.21
2018-02-10T07:41:42.343Z,97.06
2018-02-10T07:42:42.332Z,96.97
2018-02-10T07:43:42.296Z,97.16
2018-02-10T07:44:42.276Z,97.44
2018-02-10T07:45:42.256Z,97.06
2018-02-10T07:46:42.237Z,96.59
2018-02-10T07:47:42.237Z,96.59
2018-02-10T07:48:42.206Z,97.06
2018-02-10T07:49:42.175Z,96.97
2018-02-10T07:50:42.171Z,96.88
2018-02-10T07:51:42.139Z,96.88
2018-02-10T07:52:42.136Z,97.06
2018-02-10T07:53:42.095Z,97.16
2018-02-10T07:54:42.080Z,97.16
2018-02-10T07:55:42.063Z,97.54
2018-02-10T07:56:44.768Z,97.73
2018-02-10T07:57:42.015Z,98.01
2018-02-10T07:58:42.011Z,97.82
2018-02-10T07:59:41.975Z,98.20
2018-02-10T08:00:41.958Z,98.96
2018-02-10T08:01:41.937Z,98.68
2018-02-10T08:02:41.914Z,98.68
2018-02-10T08:03:41.916Z,98.58
2018-02-10T08:04:41.894Z,98.86
2018-02-10T08:05:41.859Z,98.58
2018-02-10T08:06:41.841Z,99.15
2018-02-10T08:07:41.820Z,99.05
2018-02-10T08:08:41.812Z,98.86
2018-02-10T08:09:41.778Z,99.05
2018-02-10T08:10:41.753Z,98.86
2018-02-10T08:11:41.740Z,98.96
2018-02-10T08:12:42.206Z,99.15
2018-02-10T08:13:42.207Z,98.86
2018-02-10T08:14:41.694Z,98.86
2018-02-10T08:15:41.687Z,99.24
2018-02-10T08:16:42.207Z,99.24
2018-02-10T08:17:41.620Z,99.43
2018-02-10T08:18:41.601Z,99.05
2018-02-10T08:19:41.591Z,99.62
2018-02-10T08:20:41.574Z,99.15
2018-02-10T08:21:41.539Z,99.05
2018-02-10T08:22:41.517Z,98.68
2018-02-10T08:23:41.499Z,99.62
2018-02-10T08:24:41.480Z,99.43
2018-02-10T08:25:41.478Z,99.05
2018-02-10T08:26:41.446Z,99.05
2018-02-10T08:27:41.437Z,98.77
2018-02-10T08:28:41.414Z,98.96
2018-02-10T08:29:43.190Z,98.77
2018-02-10T08:30:41.362Z,98.49
2018-02-10T08:31:41.362Z,99.05
2018-02-10T08:32:41.321Z,98.58
2018-02-10T08:33:41.318Z,99.33
2018-02-10T08:34:41.284Z,99.24
2018-02-10T08:35:41.267Z,98.77
2018-02-10T08:36:41.771Z,99.24
2018-02-10T08:37:41.242Z,99.33
2018-02-10T08:38:41.214Z,99.05
2018-02-10T08:39:41.187Z,98.86
2018-02-10T08:40:41.167Z,98.68
2018-02-10T08:41:41.144Z,98.77
2018-02-10T08:42:41.137Z,99.15
2018-02-10T08:43:41.112Z,98.86
2018-02-10T08:44:41.089Z,99.05
2018-02-10T08:45:41.070Z,98.86
2018-02-10T08:46:41.039Z,99.33
2018-02-10T08:47:41.029Z,99.15
2018-02-10T08:48:41.021Z,99.33
2018-02-10T08:49:43.691Z,99.05
2018-02-10T08:50:40.962Z,99.24
2018-02-10T08:52:01.959Z,98.86
2018-02-10T08:52:40.929Z,98.77
2018-02-10T08:53:40.906Z,99.24
2018-02-10T08:54:40.884Z,98.58
2018-02-10T08:55:40.867Z,98.30
2018-02-10T08:56:40.863Z,98.58
2018-02-10T08:57:42.692Z,98.39
2018-02-10T08:58:40.804Z,98.49
2018-02-10T08:59:40.794Z,99.05
2018-02-10T09:00:40.769Z,98.68
2018-02-10T09:01:40.764Z,99.58
2018-02-10T09:02:40.735Z,98.91
2018-02-10T09:03:40.713Z,98.91
2018-02-10T09:04:40.690Z,98.44
2018-02-10T09:05:41.221Z,98.16
2018-02-10T09:06:40.683Z,97.59
2018-02-10T09:07:40.630Z,97.97
2018-02-10T09:08:40.613Z,97.40
2018-02-10T09:09:40.595Z,97.40
2018-02-10T09:10:40.588Z,97.49
2018-02-10T09:11:40.549Z,97.97
2018-02-10T09:12:40.533Z,97.30
2018-02-10T09:13:40.514Z,97.21
2018-02-10T09:14:40.505Z,97.63
2018-02-10T09:15:40.473Z,97.78
2018-02-10T09:16:42.194Z,98.20
2018-02-10T09:17:40.443Z,98.11
2018-02-10T09:18:41.271Z,98.20
2018-02-10T09:19:40.395Z,98.11
2018-02-10T09:20:40.377Z,98.20
2018-02-10T09:21:40.371Z,98.58
2018-02-10T09:22:40.344Z,98.58
2018-02-10T09:23:40.318Z,98.39
2018-02-10T09:24:40.295Z,99.10
2018-02-10T09:25:40.274Z,98.91
2018-02-10T09:26:40.271Z,98.63
2018-02-10T09:27:40.258Z,98.35
2018-02-10T09:28:40.225Z,98.72
2018-02-10T09:29:40.208Z,98.35
2018-02-10T09:30:40.174Z,98.30
2018-02-10T09:31:40.175Z,98.44
2018-02-10T09:32:40.142Z,98.63
2018-02-10T09:33:40.119Z,97.87
2018-02-10T09:34:40.108Z,98.72
2018-02-10T09:35:40.089Z,98.44
2018-02-10T09:36:40.078Z,98.44
2018-02-10T09:37:40.043Z,98.63
2018-02-10T09:38:40.023Z,98.25
2018-02-10T09:39:40.021Z,98.35
2018-02-10T09:40:40.695Z,98.72
2018-02-10T09:41:39.967Z,98.44
2018-02-10T09:42:39.958Z,98.16
2018-02-10T09:43:39.925Z,98.25
2018-02-10T09:44:41.695Z,98.35
2018-02-10T09:45:39.882Z,98.72
2018-02-10T09:46:39.891Z,98.25
2018-02-10T09:47:39.849Z,98.16
2018-02-10T09:48:39.831Z,98.82
2018-02-10T09:49:39.812Z,98.25
2018-02-10T09:50:39.788Z,98.54
2018-02-10T09:51:39.789Z,98.63
2018-02-10T09:52:39.750Z,98.35
2018-02-10T09:53:39.743Z,98.63
2018-02-10T09:55:00.734Z,98.54
2018-02-10T09:55:39.696Z,98.06
2018-02-10T09:56:39.673Z,98.44
2018-02-10T09:57:39.678Z,98.25
2018-02-10T09:58:39.651Z,98.06
2018-02-10T09:59:39.621Z,98.72
2018-02-10T10:00:40.197Z,98.44
2018-02-10T10:01:39.573Z,99.10
2018-02-10T10:02:39.581Z,98.72
2018-02-10T10:03:39.533Z,99.01
2018-02-10T10:04:39.517Z,98.82
2018-02-10T10:05:39.497Z,98.82
2018-02-10T10:06:39.472Z,98.91
2018-02-10T10:07:39.458Z,99.48
2018-02-10T10:08:39.463Z,99.39
2018-02-10T10:09:39.415Z,98.91
2018-02-10T10:10:39.406Z,98.54
2018-02-10T10:11:39.381Z,98.54
2018-02-10T10:12:39.361Z,99.10
2018-02-10T10:13:39.358Z,99.20
2018-02-10T10:14:39.334Z,99.10
2018-02-10T10:15:39.301Z,99.39
2018-02-10T10:16:39.281Z,99.01
2018-02-10T10:17:40.237Z,99.10
2018-02-10T10:18:39.240Z,99.10
2018-02-10T10:19:39.247Z,99.10
2018-02-10T10:20:39.206Z,99.10
2018-02-10T10:21:39.208Z,98.91
2018-02-10T10:22:39.185Z,98.91
2018-02-10T10:23:39.144Z,99.10
2018-02-10T10:24:39.123Z,99.01
2018-02-10T10:25:39.127Z,99.01
2018-02-10T10:26:39.118Z,98.82
2018-02-10T10:27:39.082Z,99.10
2018-02-10T10:28:39.044Z,99.01
2018-02-10T10:29:39.039Z,98.82
2018-02-10T10:30:39.019Z,98.91
2018-02-10T10:31:38.998Z,99.29
2018-02-10T10:32:39.006Z,99.10
2018-02-10T10:33:38.966Z,99.48
2018-02-10T10:34:38.926Z,99.48
2018-02-10T10:35:38.910Z,99.58
2018-02-10T10:36:38.914Z,99.29
2018-02-10T10:37:38.869Z,98.91
2018-02-10T10:38:38.853Z,99.67
2018-02-10T10:39:38.837Z,99.01
2018-02-10T10:40:38.814Z,99.58
2018-02-10T10:41:38.795Z,99.99
2018-02-10T10:42:38.796Z,99.39
2018-02-10T10:43:38.758Z,99.48
2018-02-10T10:44:38.735Z,99.29
2018-02-10T10:45:38.717Z,99.48
2018-02-10T10:46:38.710Z,99.48
2018-02-10T10:47:38.680Z,99.67
2018-02-10T10:48:38.682Z,99.48
2018-02-10T10:49:38.645Z,98.82
2018-02-10T10:50:38.625Z,99.01
2018-02-10T10:51:38.604Z,99.10
2018-02-10T10:52:38.595Z,98.91
2018-02-10T10:53:38.587Z,98.72
2018-02-10T10:54:38.544Z,99.48
2018-02-10T10:55:38.532Z,99.48
2018-02-10T10:56:38.500Z,99.39
2018-02-10T10:57:40.702Z,98.54
2018-02-10T10:58:38.484Z,99.10
2018-02-10T10:59:38.446Z,99.20
2018-02-10T11:00:38.431Z,99.20
2018-02-10T11:01:38.416Z,99.10
2018-02-10T11:02:38.385Z,99.39
2018-02-10T11:03:38.388Z,99.77
2018-02-10T11:04:39.219Z,99.20
2018-02-10T11:05:40.201Z,99.77
2018-02-10T11:06:38.313Z,99.67
2018-02-10T11:07:38.300Z,99.10
2018-02-10T11:08:38.273Z,99.99
2018-02-10T11:09:38.274Z,99.86
2018-02-10T11:10:38.235Z,99.99
2018-02-10T11:11:38.220Z,99.96
2018-02-10T11:12:38.193Z,99.99
2018-02-10T11:13:39.205Z,99.86
2018-02-10T11:14:39.226Z,99.99
2018-02-10T11:15:38.156Z,99.91
2018-02-10T11:16:38.123Z,99.99
2018-02-10T11:17:38.103Z,99.99
2018-02-10T11:18:38.085Z,99.99
2018-02-10T11:19:38.065Z,99.99
2018-02-10T11:20:38.058Z,99.99
2018-02-10T11:21:38.025Z,99.99
2018-02-10T11:22:38.009Z,99.99
2018-02-10T11:23:37.988Z,99.99
2018-02-10T11:24:37.972Z,99.99
2018-02-10T11:25:37.970Z,99.99
2018-02-10T11:26:37.931Z,99.99
2018-02-10T11:27:37.915Z,99.99
2018-02-10T11:28:38.743Z,99.99
2018-02-10T11:29:38.722Z,99.99
2018-02-10T11:30:37.855Z,99.99
2018-02-10T11:31:37.857Z,99.99
2018-02-10T11:32:37.840Z,99.99
2018-02-10T11:33:38.704Z,99.99
2018-02-10T11:34:37.775Z,99.99
2018-02-10T11:35:37.761Z,99.99
2018-02-10T11:36:37.757Z,99.99
2018-02-10T11:37:37.740Z,99.99
2018-02-10T11:38:37.710Z,99.99
2018-02-10T11:39:37.689Z,99.99
2018-02-10T11:40:37.681Z,99.99
2018-02-10T11:41:38.241Z,99.99
2018-02-10T11:42:38.238Z,99.99
2018-02-10T11:43:37.630Z,99.99
2018-02-10T11:44:37.599Z,99.99
2018-02-10T11:45:37.569Z,99.99
2018-02-10T11:46:37.554Z,99.99
2018-02-10T11:47:37.540Z,99.99
2018-02-10T11:48:37.541Z,99.99
2018-02-10T11:49:37.499Z,99.99
2018-02-10T11:50:37.481Z,99.99
2018-02-10T11:51:37.466Z,99.99
2018-02-10T11:52:37.445Z,99.99
2018-02-10T11:53:37.438Z,99.99
2018-02-10T11:54:38.207Z,99.99
2018-02-10T11:55:37.393Z,99.99
2018-02-10T11:56:37.395Z,99.99
2018-02-10T11:57:37.349Z,99.99
2018-02-10T11:58:37.330Z,99.99
2018-02-10T11:59:37.324Z,99.99
2018-02-10T12:00:37.289Z,99.99
2018-02-10T12:01:37.268Z,99.99
2018-02-10T12:02:37.311Z,99.99
2018-02-10T12:03:37.739Z,99.99
2018-02-10T12:04:37.236Z,99.99
2018-02-10T12:05:38.207Z,99.99
2018-02-10T12:06:37.177Z,99.99
2018-02-10T12:07:37.174Z,99.99
2018-02-10T12:08:37.143Z,99.99
2018-02-10T12:09:37.126Z,99.99
2018-02-10T12:10:37.117Z,99.99
2018-02-10T12:11:37.749Z,99.99
2018-02-10T12:12:37.070Z,99.99
2018-02-10T12:13:37.050Z,99.99
2018-02-10T12:14:37.028Z,99.99
2018-02-10T12:15:37.026Z,99.99
2018-02-10T12:16:36.998Z,99.99
2018-02-10T12:17:36.980Z,99.99
2018-02-10T12:18:36.952Z,99.99
2018-02-10T12:19:37.710Z,99.99
2018-02-10T12:20:36.938Z,99.99
2018-02-10T12:21:36.900Z,99.99
2018-02-10T12:22:37.739Z,99.99
2018-02-10T12:23:36.884Z,99.99
2018-02-10T12:24:36.840Z,99.99
2018-02-10T12:25:38.708Z,99.99
2018-02-10T12:26:36.802Z,99.99
2018-02-10T12:27:36.790Z,99.99
2018-02-10T12:28:36.785Z,99.99
2018-02-10T12:29:36.751Z,99.99
2018-02-10T12:30:36.731Z,99.99
2018-02-10T12:31:36.743Z,99.99
2018-02-10T12:32:36.694Z,99.99
2018-02-10T12:33:36.695Z,99.99
2018-02-10T12:34:36.657Z,99.99
2018-02-10T12:35:36.637Z,99.99
2018-02-10T12:36:36.615Z,99.99
2018-02-10T12:37:38.210Z,99.99
2018-02-10T12:38:37.249Z,99.99
2018-02-10T12:39:36.566Z,99.99
2018-02-10T12:40:36.548Z,99.99
2018-02-10T12:41:36.538Z,99.99
2018-02-10T12:42:36.520Z,99.99
2018-02-10T12:43:36.489Z,99.99
2018-02-10T12:44:36.500Z,99.99
2018-02-10T12:45:36.471Z,99.99
2018-02-10T12:46:36.434Z,99.99
2018-02-10T12:47:36.430Z,99.99
2018-02-10T12:48:37.249Z,99.99
2018-02-10T12:49:57.388Z,99.99
2018-02-10T12:50:36.363Z,99.99
2018-02-10T12:51:36.344Z,99.99
2018-02-10T12:52:36.333Z,99.99